Accueil
METAR-TAF:

METAR-TAF

Aéroports :

Altus Air Force Base

Altus, Oklahoma, États-Unis

latitude: 34-39N, longitude: 099-16W, altitude: 420 m

Observation

Le bulletin a été fait il y a 30 minutes, à 09:56 UTC
Vent 6 kt de ouest/nord-ouest
Température -2°C
Humidité 74%
Pression 1026 hPa
Visibilité: 16.1 km
Ciel clair

METAR: KLTS 100956Z AUTO 29006KT 10SM CLR M02/M06 A3031 RMK AO2 SLP271 T10171065 $

Heure: 04:26 (10:26 UTC)

Prévision

Le bulletin a été fait il y a 1 heure et 26 minutes, à 09:00 UTC
Prévision valable du 10 à 09 UTC au 11 à 15 UTC
Vent 6 kt de ouest/nord-ouest
Visibilité 10 km ou plus
Ciel clair
Evoluant progressivement
du 11 à 12 UTC au 11 à 13 UTC
Vent 9 kt de sud
Visibilité 10 km ou plus
Quelques nuages à une hauteur de 16000 ft
Nuages épars à une hauteur de 25000 ft

TAF: KLTS 100900Z 1009/1115 29006KT 9999 SKC QNH3024INS BECMG 1112/1113 19009KT 9999 FEW160 SCT250 QNH3018INS TX10/1021Z TNM02/1009Z

Observations et prévisions météorologiques de plus de 4000 aéroports (messages METAR et TAF).

Les stations disponibles sont représentées par des disques jaunes et rouges sur la carte.

Passer la souris dessus pour voir le nom de la station.

Cliquer dessus pour voir les observations et prévisions météorologiques.

Pour changer de carte: cliquez sur les boutons verts avec une croix noire pour zoomer, sur le bouton vert avec un tiret pour effectuer un zoom arrière, ou sur les flèches vertes pour les cartes adjacentes.


METAR-TAF: